sensor_id;sensor_type;location;lat;lon;timestamp;pressure;altitude;pressure_sealevel;temperature;humidity
82416;BME280;72058;47.782;10.618;2023-11-22T00:00:48;93493.84;;;6.44;80.74
82416;BME280;72058;47.782;10.618;2023-11-22T00:03:13;93490.94;;;6.41;80.77
82416;BME280;72058;47.782;10.618;2023-11-22T00:05:39;93488.09;;;6.32;81.20
82416;BME280;72058;47.782;10.618;2023-11-22T00:08:04;93487.44;;;6.22;81.59
82416;BME280;72058;47.782;10.618;2023-11-22T00:10:29;93486.34;;;6.23;81.19
82416;BME280;72058;47.782;10.618;2023-11-22T00:12:55;93493.72;;;6.17;81.83
82416;BME280;72058;47.782;10.618;2023-11-22T00:15:20;93484.69;;;6.08;82.26
82416;BME280;72058;47.782;10.618;2023-11-22T00:17:46;93486.19;;;6.14;82.41
82416;BME280;72058;47.782;10.618;2023-11-22T00:20:12;93485.34;;;6.19;81.82
82416;BME280;72058;47.782;10.618;2023-11-22T00:22:37;93484.38;;;6.28;81.86
82416;BME280;72058;47.782;10.618;2023-11-22T00:25:03;93492.13;;;6.35;81.71
82416;BME280;72058;47.782;10.618;2023-11-22T00:27:29;93483.78;;;6.31;81.65
82416;BME280;72058;47.782;10.618;2023-11-22T00:29:56;93489.63;;;6.38;82.04
82416;BME280;72058;47.782;10.618;2023-11-22T00:32:22;93493.22;;;6.34;81.77
82416;BME280;72058;47.782;10.618;2023-11-22T00:34:47;93489.28;;;6.26;81.80
82416;BME280;72058;47.782;10.618;2023-11-22T00:37:13;93495.31;;;6.37;81.80
82416;BME280;72058;47.782;10.618;2023-11-22T00:39:39;93493.13;;;6.20;82.42
82416;BME280;72058;47.782;10.618;2023-11-22T00:42:04;93503.28;;;6.28;81.76
82416;BME280;72058;47.782;10.618;2023-11-22T00:44:30;93493.28;;;6.47;80.79
82416;BME280;72058;47.782;10.618;2023-11-22T00:46:56;93499.47;;;6.29;81.25
82416;BME280;72058;47.782;10.618;2023-11-22T00:49:22;93494.59;;;6.31;81.06
82416;BME280;72058;47.782;10.618;2023-11-22T00:51:48;93502.94;;;6.35;81.43
82416;BME280;72058;47.782;10.618;2023-11-22T00:54:13;93501.19;;;6.25;81.39
82416;BME280;72058;47.782;10.618;2023-11-22T00:56:39;93500.50;;;6.33;81.02
82416;BME280;72058;47.782;10.618;2023-11-22T00:59:05;93501.09;;;6.30;81.25
82416;BME280;72058;47.782;10.618;2023-11-22T01:01:30;93505.53;;;6.21;82.08
82416;BME280;72058;47.782;10.618;2023-11-22T01:03:57;93503.59;;;6.27;81.74
82416;BME280;72058;47.782;10.618;2023-11-22T01:06:23;93499.19;;;6.31;81.49
82416;BME280;72058;47.782;10.618;2023-11-22T01:08:48;93500.66;;;6.23;82.13
82416;BME280;72058;47.782;10.618;2023-11-22T01:11:14;93503.06;;;6.25;81.70
82416;BME280;72058;47.782;10.618;2023-11-22T01:13:39;93499.75;;;6.28;81.78
82416;BME280;72058;47.782;10.618;2023-11-22T01:16:11;93497.88;;;6.28;81.62
82416;BME280;72058;47.782;10.618;2023-11-22T01:18:37;93500.94;;;6.22;82.55
82416;BME280;72058;47.782;10.618;2023-11-22T01:21:03;93507.44;;;6.21;82.65
82416;BME280;72058;47.782;10.618;2023-11-22T01:23:34;93510.66;;;6.23;82.48
82416;BME280;72058;47.782;10.618;2023-11-22T01:25:59;93516.34;;;6.21;82.50
82416;BME280;72058;47.782;10.618;2023-11-22T01:28:26;93516.63;;;6.20;82.67
82416;BME280;72058;47.782;10.618;2023-11-22T01:30:54;93524.72;;;6.20;82.70
82416;BME280;72058;47.782;10.618;2023-11-22T01:33:23;93526.66;;;6.19;82.73
82416;BME280;72058;47.782;10.618;2023-11-22T01:35:48;93530.22;;;6.15;83.03
82416;BME280;72058;47.782;10.618;2023-11-22T01:38:15;93526.66;;;6.19;82.90
82416;BME280;72058;47.782;10.618;2023-11-22T01:40:47;93530.94;;;6.20;82.24
82416;BME280;72058;47.782;10.618;2023-11-22T01:43:20;93520.22;;;6.15;82.85
82416;BME280;72058;47.782;10.618;2023-11-22T01:45:45;93522.47;;;6.08;83.04
82416;BME280;72058;47.782;10.618;2023-11-22T01:48:11;93519.94;;;6.17;82.62
82416;BME280;72058;47.782;10.618;2023-11-22T01:50:41;93523.50;;;6.12;82.59
82416;BME280;72058;47.782;10.618;2023-11-22T01:53:09;93518.03;;;6.17;82.22
82416;BME280;72058;47.782;10.618;2023-11-22T01:55:36;93523.97;;;6.19;82.04
82416;BME280;72058;47.782;10.618;2023-11-22T01:58:02;93521.25;;;6.19;82.08
82416;BME280;72058;47.782;10.618;2023-11-22T02:00:32;93527.28;;;6.11;82.11
82416;BME280;72058;47.782;10.618;2023-11-22T02:02:57;93522.47;;;6.08;82.47
82416;BME280;72058;47.782;10.618;2023-11-22T02:05:23;93521.44;;;6.04;82.25
82416;BME280;72058;47.782;10.618;2023-11-22T02:07:48;93533.00;;;6.09;82.21
82416;BME280;72058;47.782;10.618;2023-11-22T02:10:13;93523.66;;;6.02;82.38
82416;BME280;72058;47.782;10.618;2023-11-22T02:12:39;93529.34;;;6.00;82.33
82416;BME280;72058;47.782;10.618;2023-11-22T02:15:05;93541.78;;;5.96;82.80
82416;BME280;72058;47.782;10.618;2023-11-22T02:17:31;93540.13;;;6.00;82.34
82416;BME280;72058;47.782;10.618;2023-11-22T02:19:56;93543.78;;;6.09;82.19
82416;BME280;72058;47.782;10.618;2023-11-22T02:22:21;93542.84;;;6.00;82.27
82416;BME280;72058;47.782;10.618;2023-11-22T02:24:47;93538.09;;;6.11;81.48
82416;BME280;72058;47.782;10.618;2023-11-22T02:27:12;93536.06;;;6.22;81.85
82416;BME280;72058;47.782;10.618;2023-11-22T02:29:38;93535.34;;;6.16;81.99
82416;BME280;72058;47.782;10.618;2023-11-22T02:32:03;93530.13;;;6.20;81.52
82416;BME280;72058;47.782;10.618;2023-11-22T02:34:29;93540.44;;;6.18;81.81
82416;BME280;72058;47.782;10.618;2023-11-22T02:36:54;93538.09;;;6.11;81.98
82416;BME280;72058;47.782;10.618;2023-11-22T02:39:20;93541.44;;;6.03;82.67
82416;BME280;72058;47.782;10.618;2023-11-22T02:41:46;93539.69;;;6.12;82.47
82416;BME280;72058;47.782;10.618;2023-11-22T02:44:11;93540.50;;;6.13;82.63
82416;BME280;72058;47.782;10.618;2023-11-22T02:46:42;93533.16;;;6.18;82.42
82416;BME280;72058;47.782;10.618;2023-11-22T02:49:07;93536.28;;;6.25;81.89
82416;BME280;72058;47.782;10.618;2023-11-22T02:51:35;93544.25;;;6.35;80.89
82416;BME280;72058;47.782;10.618;2023-11-22T02:54:00;93532.78;;;6.25;81.29
82416;BME280;72058;47.782;10.618;2023-11-22T02:56:25;93535.25;;;6.21;81.46
82416;BME280;72058;47.782;10.618;2023-11-22T02:58:51;93544.53;;;6.15;81.50
82416;BME280;72058;47.782;10.618;2023-11-22T03:01:16;93540.22;;;6.14;81.64
82416;BME280;72058;47.782;10.618;2023-11-22T03:03:41;93535.97;;;6.08;81.86
82416;BME280;72058;47.782;10.618;2023-11-22T03:06:07;93543.16;;;6.18;81.87
82416;BME280;72058;47.782;10.618;2023-11-22T03:08:32;93548.88;;;6.11;81.96
82416;BME280;72058;47.782;10.618;2023-11-22T03:10:58;93555.09;;;6.12;81.86
82416;BME280;72058;47.782;10.618;2023-11-22T03:13:23;93557.50;;;6.13;81.40
82416;BME280;72058;47.782;10.618;2023-11-22T03:15:49;93558.31;;;6.14;81.44
82416;BME280;72058;47.782;10.618;2023-11-22T03:18:14;93559.13;;;6.14;81.50
82416;BME280;72058;47.782;10.618;2023-11-22T03:20:41;93566.13;;;6.15;81.31
82416;BME280;72058;47.782;10.618;2023-11-22T03:23:08;93558.09;;;6.10;81.91
82416;BME280;72058;47.782;10.618;2023-11-22T03:25:35;93568.66;;;6.06;81.51
82416;BME280;72058;47.782;10.618;2023-11-22T03:28:01;93569.13;;;6.14;81.64
82416;BME280;72058;47.782;10.618;2023-11-22T03:30:26;93571.09;;;6.08;81.87
82416;BME280;72058;47.782;10.618;2023-11-22T03:32:51;93567.50;;;6.13;81.39
82416;BME280;72058;47.782;10.618;2023-11-22T03:35:17;93561.59;;;6.11;81.80
82416;BME280;72058;47.782;10.618;2023-11-22T03:37:42;93568.25;;;6.18;81.22
82416;BME280;72058;47.782;10.618;2023-11-22T03:40:08;93561.09;;;6.08;81.59
82416;BME280;72058;47.782;10.618;2023-11-22T03:42:36;93575.41;;;6.09;81.96
82416;BME280;72058;47.782;10.618;2023-11-22T03:45:02;93577.28;;;6.08;81.96
82416;BME280;72058;47.782;10.618;2023-11-22T03:47:28;93581.06;;;6.07;81.88
82416;BME280;72058;47.782;10.618;2023-11-22T03:49:53;93577.84;;;6.05;82.14
82416;BME280;72058;47.782;10.618;2023-11-22T03:52:18;93584.06;;;6.06;82.34
82416;BME280;72058;47.782;10.618;2023-11-22T03:54:44;93583.63;;;5.99;82.58
82416;BME280;72058;47.782;10.618;2023-11-22T03:57:09;93590.09;;;5.98;82.76
82416;BME280;72058;47.782;10.618;2023-11-22T03:59:35;93585.75;;;6.02;82.87
82416;BME280;72058;47.782;10.618;2023-11-22T04:02:00;93590.28;;;6.06;82.60
82416;BME280;72058;47.782;10.618;2023-11-22T04:04:26;93593.94;;;6.16;81.94
82416;BME280;72058;47.782;10.618;2023-11-22T04:06:51;93598.00;;;6.13;81.79
82416;BME280;72058;47.782;10.618;2023-11-22T04:09:18;93595.59;;;6.12;81.91
82416;BME280;72058;47.782;10.618;2023-11-22T04:11:43;93600.78;;;6.08;82.26
82416;BME280;72058;47.782;10.618;2023-11-22T04:14:08;93601.53;;;6.14;81.84
82416;BME280;72058;47.782;10.618;2023-11-22T04:16:34;93609.41;;;6.29;80.31
82416;BME280;72058;47.782;10.618;2023-11-22T04:18:59;93613.38;;;6.18;81.00
82416;BME280;72058;47.782;10.618;2023-11-22T04:21:25;93616.56;;;6.20;80.71
82416;BME280;72058;47.782;10.618;2023-11-22T04:23:50;93620.50;;;6.08;81.35
82416;BME280;72058;47.782;10.618;2023-11-22T04:26:16;93627.25;;;6.06;80.69
82416;BME280;72058;47.782;10.618;2023-11-22T04:28:41;93625.56;;;5.86;80.54
82416;BME280;72058;47.782;10.618;2023-11-22T04:31:07;93628.25;;;5.62;81.33
82416;BME280;72058;47.782;10.618;2023-11-22T04:33:34;93629.44;;;5.51;81.46
82416;BME280;72058;47.782;10.618;2023-11-22T04:36:00;93634.13;;;5.41;82.89
82416;BME280;72058;47.782;10.618;2023-11-22T04:38:26;93641.78;;;5.57;82.50
82416;BME280;72058;47.782;10.618;2023-11-22T04:40:51;93639.63;;;5.59;81.22
82416;BME280;72058;47.782;10.618;2023-11-22T04:43:17;93645.03;;;5.59;80.70
82416;BME280;72058;47.782;10.618;2023-11-22T04:45:42;93655.09;;;5.49;81.07
82416;BME280;72058;47.782;10.618;2023-11-22T04:48:08;93659.44;;;5.45;80.89
82416;BME280;72058;47.782;10.618;2023-11-22T04:50:34;93667.25;;;5.46;80.79
82416;BME280;72058;47.782;10.618;2023-11-22T04:53:00;93665.63;;;5.45;80.89
82416;BME280;72058;47.782;10.618;2023-11-22T04:55:26;93670.59;;;5.33;81.02
82416;BME280;72058;47.782;10.618;2023-11-22T04:57:53;93675.22;;;5.27;81.33
82416;BME280;72058;47.782;10.618;2023-11-22T05:00:19;93671.16;;;5.30;80.61
82416;BME280;72058;47.782;10.618;2023-11-22T05:02:44;93675.31;;;5.17;80.89
82416;BME280;72058;47.782;10.618;2023-11-22T05:05:09;93682.41;;;5.08;81.81
82416;BME280;72058;47.782;10.618;2023-11-22T05:07:38;93691.31;;;5.04;82.04
82416;BME280;72058;47.782;10.618;2023-11-22T05:10:04;93699.44;;;4.99;82.38
82416;BME280;72058;47.782;10.618;2023-11-22T05:12:30;93696.63;;;5.19;81.61
82416;BME280;72058;47.782;10.618;2023-11-22T05:14:56;93688.47;;;5.24;80.71
82416;BME280;72058;47.782;10.618;2023-11-22T05:17:21;93692.31;;;5.13;79.85
82416;BME280;72058;47.782;10.618;2023-11-22T05:19:47;93695.97;;;4.93;80.61
82416;BME280;72058;47.782;10.618;2023-11-22T05:22:12;93704.66;;;4.85;80.44
82416;BME280;72058;47.782;10.618;2023-11-22T05:24:37;93710.41;;;4.63;81.43
82416;BME280;72058;47.782;10.618;2023-11-22T05:27:06;93715.84;;;4.58;81.43
82416;BME280;72058;47.782;10.618;2023-11-22T05:29:32;93713.50;;;4.41;82.68
82416;BME280;72058;47.782;10.618;2023-11-22T05:31:58;93716.41;;;4.45;82.40
82416;BME280;72058;47.782;10.618;2023-11-22T05:34:23;93717.50;;;4.44;83.44
82416;BME280;72058;47.782;10.618;2023-11-22T05:36:48;93722.63;;;4.50;82.35
82416;BME280;72058;47.782;10.618;2023-11-22T05:39:13;93732.84;;;4.48;83.41
82416;BME280;72058;47.782;10.618;2023-11-22T05:41:39;93739.03;;;4.44;81.51
82416;BME280;72058;47.782;10.618;2023-11-22T05:44:04;93740.66;;;4.45;81.00
82416;BME280;72058;47.782;10.618;2023-11-22T05:46:30;93750.69;;;4.34;80.97
82416;BME280;72058;47.782;10.618;2023-11-22T05:48:55;93746.91;;;4.30;81.27
82416;BME280;72058;47.782;10.618;2023-11-22T05:51:21;93750.69;;;4.34;80.76
82416;BME280;72058;47.782;10.618;2023-11-22T05:53:46;93752.31;;;4.25;81.75
82416;BME280;72058;47.782;10.618;2023-11-22T05:56:12;93752.00;;;4.37;82.04
82416;BME280;72058;47.782;10.618;2023-11-22T05:58:38;93756.06;;;4.29;80.97
82416;BME280;72058;47.782;10.618;2023-11-22T06:01:05;93756.38;;;4.17;81.46
82416;BME280;72058;47.782;10.618;2023-11-22T06:03:31;93763.38;;;4.13;81.89
82416;BME280;72058;47.782;10.618;2023-11-22T06:05:56;93762.59;;;4.18;82.37
82416;BME280;72058;47.782;10.618;2023-11-22T06:08:22;93767.41;;;4.26;81.16
82416;BME280;72058;47.782;10.618;2023-11-22T06:10:48;93780.88;;;4.26;80.38
82416;BME280;72058;47.782;10.618;2023-11-22T06:13:13;93771.16;;;4.20;79.82
82416;BME280;72058;47.782;10.618;2023-11-22T06:15:40;93783.03;;;4.14;80.12
82416;BME280;72058;47.782;10.618;2023-11-22T06:18:05;93788.13;;;4.10;80.08
82416;BME280;72058;47.782;10.618;2023-11-22T06:20:30;93796.53;;;3.99;80.83
82416;BME280;72058;47.782;10.618;2023-11-22T06:22:56;93798.66;;;4.07;80.29
82416;BME280;72058;47.782;10.618;2023-11-22T06:25:21;93796.53;;;3.89;80.13
82416;BME280;72058;47.782;10.618;2023-11-22T06:27:47;93795.19;;;3.71;79.80
82416;BME280;72058;47.782;10.618;2023-11-22T06:30:12;93801.09;;;3.73;79.24
82416;BME280;72058;47.782;10.618;2023-11-22T06:32:38;93801.63;;;3.80;79.27
82416;BME280;72058;47.782;10.618;2023-11-22T06:35:04;93811.88;;;3.83;78.23
82416;BME280;72058;47.782;10.618;2023-11-22T06:37:31;93808.38;;;3.72;78.54
82416;BME280;72058;47.782;10.618;2023-11-22T06:39:56;93813.19;;;3.55;78.77
82416;BME280;72058;47.782;10.618;2023-11-22T06:42:22;93819.91;;;3.48;79.87
82416;BME280;72058;47.782;10.618;2023-11-22T06:44:48;93823.69;;;3.52;79.64
82416;BME280;72058;47.782;10.618;2023-11-22T06:47:13;93818.03;;;3.53;79.06
82416;BME280;72058;47.782;10.618;2023-11-22T06:49:39;93830.13;;;3.46;80.21
82416;BME280;72058;47.782;10.618;2023-11-22T06:52:04;93826.38;;;3.52;79.27
82416;BME280;72058;47.782;10.618;2023-11-22T06:54:30;93830.94;;;3.41;79.83
82416;BME280;72058;47.782;10.618;2023-11-22T06:56:56;93832.50;;;3.27;79.95
82416;BME280;72058;47.782;10.618;2023-11-22T06:59:21;93838.97;;;3.36;80.03
82416;BME280;72058;47.782;10.618;2023-11-22T07:01:47;93837.41;;;3.40;80.21
82416;BME280;72058;47.782;10.618;2023-11-22T07:04:12;93843.84;;;3.34;80.21
82416;BME280;72058;47.782;10.618;2023-11-22T07:06:38;93852.16;;;3.37;79.72
82416;BME280;72058;47.782;10.618;2023-11-22T07:09:04;93851.06;;;3.23;79.97
82416;BME280;72058;47.782;10.618;2023-11-22T07:11:30;93856.69;;;3.17;80.90
82416;BME280;72058;47.782;10.618;2023-11-22T07:13:55;93862.06;;;3.22;81.08
82416;BME280;72058;47.782;10.618;2023-11-22T07:16:22;93868.84;;;3.34;81.31
82416;BME280;72058;47.782;10.618;2023-11-22T07:18:48;93867.50;;;3.52;79.09
82416;BME280;72058;47.782;10.618;2023-11-22T07:21:13;93869.34;;;3.21;80.29
82416;BME280;72058;47.782;10.618;2023-11-22T07:23:38;93879.00;;;3.17;80.39
82416;BME280;72058;47.782;10.618;2023-11-22T07:26:04;93887.28;;;3.05;80.85
82416;BME280;72058;47.782;10.618;2023-11-22T07:28:31;93884.59;;;3.11;81.16
82416;BME280;72058;47.782;10.618;2023-11-22T07:30:56;93886.53;;;3.20;80.74
82416;BME280;72058;47.782;10.618;2023-11-22T07:33:22;93895.94;;;3.18;80.09
82416;BME280;72058;47.782;10.618;2023-11-22T07:35:47;93905.13;;;3.37;80.64
82416;BME280;72058;47.782;10.618;2023-11-22T07:38:13;93911.06;;;3.34;80.01
82416;BME280;72058;47.782;10.618;2023-11-22T07:40:39;93919.13;;;3.39;79.96
82416;BME280;72058;47.782;10.618;2023-11-22T07:43:04;93927.38;;;3.17;80.92
82416;BME280;72058;47.782;10.618;2023-11-22T07:45:31;93933.84;;;3.16;81.16
82416;BME280;72058;47.782;10.618;2023-11-22T07:47:57;93931.91;;;3.12;81.08
82416;BME280;72058;47.782;10.618;2023-11-22T07:50:25;93927.53;;;2.90;81.11
82416;BME280;72058;47.782;10.618;2023-11-22T07:52:50;93932.81;;;2.75;81.82
82416;BME280;72058;47.782;10.618;2023-11-22T07:55:16;93942.50;;;2.76;81.57
82416;BME280;72058;47.782;10.618;2023-11-22T07:57:43;93941.94;;;2.74;81.75
82416;BME280;72058;47.782;10.618;2023-11-22T08:00:09;93940.28;;;2.68;81.66
82416;BME280;72058;47.782;10.618;2023-11-22T08:02:36;93937.00;;;2.56;82.24
82416;BME280;72058;47.782;10.618;2023-11-22T08:05:04;93948.34;;;2.68;82.04
82416;BME280;72058;47.782;10.618;2023-11-22T08:07:34;93959.38;;;2.72;81.52
82416;BME280;72058;47.782;10.618;2023-11-22T08:10:00;93958.03;;;2.69;81.63
82416;BME280;72058;47.782;10.618;2023-11-22T08:12:35;93958.34;;;2.78;81.48
82416;BME280;72058;47.782;10.618;2023-11-22T08:15:02;93943.91;;;2.89;81.32
82416;BME280;72058;47.782;10.618;2023-11-22T08:17:29;93964.34;;;2.90;81.61
82416;BME280;72058;47.782;10.618;2023-11-22T08:19:54;93976.47;;;2.97;82.21
82416;BME280;72058;47.782;10.618;2023-11-22T08:22:20;93970.75;;;2.84;81.68
82416;BME280;72058;47.782;10.618;2023-11-22T08:24:46;93965.34;;;2.79;81.21
82416;BME280;72058;47.782;10.618;2023-11-22T08:27:12;93972.31;;;2.80;82.48
82416;BME280;72058;47.782;10.618;2023-11-22T08:29:40;93979.94;;;2.93;81.87
82416;BME280;72058;47.782;10.618;2023-11-22T08:32:06;93971.03;;;2.87;83.19
82416;BME280;72058;47.782;10.618;2023-11-22T08:34:32;93970.91;;;3.09;81.79
82416;BME280;72058;47.782;10.618;2023-11-22T08:36:57;93983.28;;;3.15;81.83
82416;BME280;72058;47.782;10.618;2023-11-22T08:39:24;93992.47;;;3.29;80.23
82416;BME280;72058;47.782;10.618;2023-11-22T08:41:49;93993.03;;;3.26;79.45
82416;BME280;72058;47.782;10.618;2023-11-22T08:44:15;93987.03;;;3.14;79.55
82416;BME280;72058;47.782;10.618;2023-11-22T08:46:41;93998.84;;;3.08;80.23
82416;BME280;72058;47.782;10.618;2023-11-22T08:49:06;94011.94;;;2.99;80.86
82416;BME280;72058;47.782;10.618;2023-11-22T08:51:31;93999.03;;;3.01;80.59
82416;BME280;72058;47.782;10.618;2023-11-22T08:53:58;94003.09;;;3.04;80.56
82416;BME280;72058;47.782;10.618;2023-11-22T08:56:24;94014.63;;;2.99;80.68
82416;BME280;72058;47.782;10.618;2023-11-22T08:58:49;94015.22;;;3.07;80.70
82416;BME280;72058;47.782;10.618;2023-11-22T09:01:15;94026.84;;;3.17;79.94
82416;BME280;72058;47.782;10.618;2023-11-22T09:03:40;94042.97;;;3.22;78.66
82416;BME280;72058;47.782;10.618;2023-11-22T09:06:06;94035.97;;;3.21;79.40
82416;BME280;72058;47.782;10.618;2023-11-22T09:08:32;94025.81;;;3.28;79.44
82416;BME280;72058;47.782;10.618;2023-11-22T09:10:57;94035.44;;;3.19;79.75
82416;BME280;72058;47.782;10.618;2023-11-22T09:13:23;94022.47;;;3.06;80.59
82416;BME280;72058;47.782;10.618;2023-11-22T09:15:50;94028.16;;;3.15;80.42
82416;BME280;72058;47.782;10.618;2023-11-22T09:18:15;94030.53;;;3.06;80.63
82416;BME280;72058;47.782;10.618;2023-11-22T09:20:44;94027.38;;;3.19;80.08
82416;BME280;72058;47.782;10.618;2023-11-22T09:23:09;94039.16;;;3.13;79.86
82416;BME280;72058;47.782;10.618;2023-11-22T09:25:35;94025.56;;;2.88;80.86
82416;BME280;72058;47.782;10.618;2023-11-22T09:28:01;94027.19;;;2.89;81.30
82416;BME280;72058;47.782;10.618;2023-11-22T09:30:31;94042.16;;;2.80;80.68
82416;BME280;72058;47.782;10.618;2023-11-22T09:35:29;94044.19;;;2.99;80.93
82416;BME280;72058;47.782;10.618;2023-11-22T09:37:57;94054.13;;;2.99;79.43
82416;BME280;72058;47.782;10.618;2023-11-22T09:40:22;94063.00;;;2.99;79.31
82416;BME280;72058;47.782;10.618;2023-11-22T09:42:48;94069.94;;;2.95;79.41
82416;BME280;72058;47.782;10.618;2023-11-22T09:45:20;94068.03;;;2.91;79.87
82416;BME280;72058;47.782;10.618;2023-11-22T09:47:46;94083.28;;;2.85;80.56
82416;BME280;72058;47.782;10.618;2023-11-22T09:50:19;94076.84;;;2.81;79.93
82416;BME280;72058;47.782;10.618;2023-11-22T09:52:47;94081.97;;;2.83;80.15
82416;BME280;72058;47.782;10.618;2023-11-22T09:55:15;94069.06;;;2.85;79.77
82416;BME280;72058;47.782;10.618;2023-11-22T09:57:40;94067.94;;;2.76;79.22
82416;BME280;72058;47.782;10.618;2023-11-22T10:00:08;94079.56;;;2.54;79.66
82416;BME280;72058;47.782;10.618;2023-11-22T10:02:40;94077.69;;;2.55;80.96
82416;BME280;72058;47.782;10.618;2023-11-22T10:05:05;94069.78;;;2.43;81.04
82416;BME280;72058;47.782;10.618;2023-11-22T10:07:31;94070.34;;;2.45;80.12
82416;BME280;72058;47.782;10.618;2023-11-22T10:09:57;94070.19;;;2.57;79.61
82416;BME280;72058;47.782;10.618;2023-11-22T10:12:29;94066.28;;;2.43;80.74
82416;BME280;72058;47.782;10.618;2023-11-22T10:14:55;94056.13;;;2.45;81.16
82416;BME280;72058;47.782;10.618;2023-11-22T10:17:20;94056.91;;;2.40;81.01
82416;BME280;72058;47.782;10.618;2023-11-22T10:19:45;94066.19;;;2.59;80.82
82416;BME280;72058;47.782;10.618;2023-11-22T10:22:11;94061.13;;;2.68;80.07
82416;BME280;72058;47.782;10.618;2023-11-22T10:24:43;94059.34;;;2.79;81.25
82416;BME280;72058;47.782;10.618;2023-11-22T10:27:10;94056.38;;;2.75;79.40
82416;BME280;72058;47.782;10.618;2023-11-22T10:29:35;94059.72;;;2.60;79.91
82416;BME280;72058;47.782;10.618;2023-11-22T10:32:03;94055.75;;;2.63;80.03
82416;BME280;72058;47.782;10.618;2023-11-22T10:34:29;94059.69;;;2.55;80.18
82416;BME280;72058;47.782;10.618;2023-11-22T10:36:55;94055.16;;;2.56;81.16
82416;BME280;72058;47.782;10.618;2023-11-22T10:39:21;94071.41;;;2.44;80.73
82416;BME280;72058;47.782;10.618;2023-11-22T10:41:47;94064.41;;;2.43;80.98
82416;BME280;72058;47.782;10.618;2023-11-22T10:44:15;94063.44;;;2.54;80.83
82416;BME280;72058;47.782;10.618;2023-11-22T10:46:41;94058.31;;;2.48;81.18
82416;BME280;72058;47.782;10.618;2023-11-22T10:49:06;94054.81;;;2.47;80.89
82416;BME280;72058;47.782;10.618;2023-11-22T10:51:32;94068.72;;;2.44;80.14
82416;BME280;72058;47.782;10.618;2023-11-22T10:54:02;94075.97;;;2.44;80.46
82416;BME280;72058;47.782;10.618;2023-11-22T10:56:28;94081.41;;;2.49;79.97
82416;BME280;72058;47.782;10.618;2023-11-22T10:58:58;94076.94;;;2.59;80.25
82416;BME280;72058;47.782;10.618;2023-11-22T11:01:27;94065.50;;;2.42;80.67
82416;BME280;72058;47.782;10.618;2023-11-22T11:04:13;94071.56;;;2.59;81.45
82416;BME280;72058;47.782;10.618;2023-11-22T11:06:44;94065.03;;;2.50;80.13
82416;BME280;72058;47.782;10.618;2023-11-22T11:09:12;94060.75;;;2.54;79.56
82416;BME280;72058;47.782;10.618;2023-11-22T11:11:40;94075.72;;;2.45;80.57
82416;BME280;72058;47.782;10.618;2023-11-22T11:14:08;94074.34;;;2.43;80.66
82416;BME280;72058;47.782;10.618;2023-11-22T11:16:38;94080.50;;;2.38;80.75
82416;BME280;72058;47.782;10.618;2023-11-22T11:19:07;94073.69;;;2.25;81.54
82416;BME280;72058;47.782;10.618;2023-11-22T11:21:33;94092.00;;;2.34;81.97
82416;BME280;72058;47.782;10.618;2023-11-22T11:23:58;94091.63;;;2.52;80.67
82416;BME280;72058;47.782;10.618;2023-11-22T11:26:28;94087.06;;;2.52;81.41
82416;BME280;72058;47.782;10.618;2023-11-22T11:28:54;94082.50;;;2.53;80.28
82416;BME280;72058;47.782;10.618;2023-11-22T11:31:22;94089.28;;;2.60;81.45
82416;BME280;72058;47.782;10.618;2023-11-22T11:36:30;94100.75;;;2.51;80.68
82416;BME280;72058;47.782;10.618;2023-11-22T11:39:01;94102.69;;;2.60;80.75
82416;BME280;72058;47.782;10.618;2023-11-22T11:41:31;94100.06;;;2.65;80.74
82416;BME280;72058;47.782;10.618;2023-11-22T11:43:58;94082.84;;;2.61;79.96
82416;BME280;72058;47.782;10.618;2023-11-22T11:46:24;94086.25;;;2.52;80.83
82416;BME280;72058;47.782;10.618;2023-11-22T11:48:53;94078.38;;;2.40;80.89
82416;BME280;72058;47.782;10.618;2023-11-22T11:51:20;94075.97;;;2.44;81.02
82416;BME280;72058;47.782;10.618;2023-11-22T11:53:46;94076.84;;;2.49;80.04
82416;BME280;72058;47.782;10.618;2023-11-22T11:56:12;94068.56;;;2.56;79.90
82416;BME280;72058;47.782;10.618;2023-11-22T11:58:37;94068.91;;;2.64;80.11
82416;BME280;72058;47.782;10.618;2023-11-22T12:01:05;94071.56;;;2.59;79.26
82416;BME280;72058;47.782;10.618;2023-11-22T12:03:32;94071.09;;;2.67;78.68
82416;BME280;72058;47.782;10.618;2023-11-22T12:05:58;94062.63;;;2.54;79.09
82416;BME280;72058;47.782;10.618;2023-11-22T12:08:23;94063.34;;;2.44;80.32
82416;BME280;72058;47.782;10.618;2023-11-22T12:10:48;94066.69;;;2.24;80.23
82416;BME280;72058;47.782;10.618;2023-11-22T12:13:23;94070.09;;;2.47;80.84
82416;BME280;72058;47.782;10.618;2023-11-22T12:15:50;94075.22;;;2.48;80.37
82416;BME280;72058;47.782;10.618;2023-11-22T12:18:17;94077.84;;;2.43;80.26
82416;BME280;72058;47.782;10.618;2023-11-22T12:20:54;94089.25;;;2.55;80.33
82416;BME280;72058;47.782;10.618;2023-11-22T12:23:20;94096.28;;;2.61;80.40
82416;BME280;72058;47.782;10.618;2023-11-22T12:25:47;94092.28;;;2.64;79.92
82416;BME280;72058;47.782;10.618;2023-11-22T12:28:16;94097.78;;;2.52;79.83
82416;BME280;72058;47.782;10.618;2023-11-22T12:30:42;94106.19;;;2.61;80.30
82416;BME280;72058;47.782;10.618;2023-11-22T12:33:09;94108.00;;;2.50;79.27
82416;BME280;72058;47.782;10.618;2023-11-22T12:35:36;94112.28;;;2.51;79.45
82416;BME280;72058;47.782;10.618;2023-11-22T12:38:02;94109.41;;;2.58;78.81
82416;BME280;72058;47.782;10.618;2023-11-22T12:40:31;94105.59;;;2.54;78.76
82416;BME280;72058;47.782;10.618;2023-11-22T12:42:57;94106.19;;;2.61;79.28
82416;BME280;72058;47.782;10.618;2023-11-22T12:45:24;94112.50;;;2.77;79.42
82416;BME280;72058;47.782;10.618;2023-11-22T12:47:50;94108.72;;;2.73;78.42
82416;BME280;72058;47.782;10.618;2023-11-22T12:50:36;94099.38;;;2.80;78.38
82416;BME280;72058;47.782;10.618;2023-11-22T12:53:10;94102.91;;;2.86;78.28
82416;BME280;72058;47.782;10.618;2023-11-22T12:55:45;94104.97;;;2.74;78.65
82416;BME280;72058;47.782;10.618;2023-11-22T12:58:13;94107.00;;;2.61;78.50
82416;BME280;72058;47.782;10.618;2023-11-22T13:00:39;94108.34;;;2.59;78.97